Time,TemperatureF,DewpointF,PressureIn,WindDirection,WindDirectionDegrees,WindSpeedMPH,WindSpeedGustMPH,Humidity,HourlyPrecipIn,Conditions,Clouds,dailyrainin,SoftwareType,DateUTC
2013-08-22 00:05:00,77.9,71.0,30.80,South,173,0.0,-999.0,79,-99.99,,,0.00,weatherlink.com 1.10,2013-08-22 05:05:00,
2013-08-22 00:20:00,77.3,71.0,30.79,South,173,0.0,-999.0,80,-99.99,,,0.00,weatherlink.com 1.10,2013-08-22 05:20:00,
2013-08-22 00:36:00,77.0,70.0,30.79,South,173,0.0,-999.0,80,-99.99,,,0.00,weatherlink.com 1.10,2013-08-22 05:36:00,
2013-08-22 00:51:00,76.6,70.0,30.79,South,173,0.0,-999.0,81,-99.99,,,0.00,weatherlink.com 1.10,2013-08-22 05:51:00,
2013-08-22 01:06:00,76.1,70.0,30.79,South,173,0.0,-999.0,81,-99.99,,,0.00,weatherlink.com 1.10,2013-08-22 06:06:00,
2013-08-22 01:21:00,75.7,70.0,30.78,South,173,0.0,-999.0,82,-99.99,,,0.00,weatherlink.com 1.10,2013-08-22 06:21:00,
2013-08-22 01:36:00,75.5,70.0,30.79,South,173,0.0,-999.0,83,-99.99,,,0.00,weatherlink.com 1.10,2013-08-22 06:36:00,
2013-08-22 01:51:00,75.1,70.0,30.79,South,173,0.0,-999.0,83,-99.99,,,0.00,weatherlink.com 1.10,2013-08-22 06:51:00,
2013-08-22 02:06:00,75.3,70.0,30.78,South,173,0.0,-999.0,84,-99.99,,,0.00,weatherlink.com 1.10,2013-08-22 07:06:00,
2013-08-22 02:21:00,75.2,70.0,30.78,South,173,0.0,-999.0,84,-99.99,,,0.00,weatherlink.com 1.10,2013-08-22 07:21:00,
2013-08-22 02:36:00,75.3,71.0,30.78,South,173,0.0,-999.0,85,-99.99,,,0.00,weatherlink.com 1.10,2013-08-22 07:36:00,
2013-08-22 02:51:00,76.2,72.0,30.78,South,172,0.0,-999.0,86,-99.99,,,0.00,weatherlink.com 1.10,2013-08-22 07:51:00,
2013-08-22 03:06:00,76.4,72.0,30.79,South,172,0.0,-999.0,85,-99.99,,,0.00,weatherlink.com 1.10,2013-08-22 08:06:00,
2013-08-22 03:21:00,76.0,72.0,30.79,South,172,0.0,-999.0,86,-99.99,,,0.00,weatherlink.com 1.10,2013-08-22 08:21:00,
2013-08-22 03:35:00,75.8,71.0,30.78,South,172,0.0,-999.0,86,-99.99,,,0.00,weatherlink.com 1.10,2013-08-22 08:35:00,
2013-08-22 03:50:00,75.3,71.0,30.78,South,172,0.0,-999.0,86,-99.99,,,0.00,weatherlink.com 1.10,2013-08-22 08:50:00,
2013-08-22 04:05:00,74.8,70.0,30.78,South,172,0.0,-999.0,86,-99.99,,,0.00,weatherlink.com 1.10,2013-08-22 09:05:00,
2013-08-22 04:20:00,74.6,71.0,30.78,South,172,0.0,-999.0,87,-99.99,,,0.00,weatherlink.com 1.10,2013-08-22 09:20:00,
2013-08-22 04:36:00,74.3,70.0,30.78,South,172,0.0,-999.0,87,-99.99,,,0.00,weatherlink.com 1.10,2013-08-22 09:36:00,
2013-08-22 04:51:00,74.3,70.0,30.79,South,172,0.0,-999.0,87,-99.99,,,0.00,weatherlink.com 1.10,2013-08-22 09:51:00,
2013-08-22 05:06:00,74.0,70.0,30.79,South,172,0.0,-999.0,87,-99.99,,,0.00,weatherlink.com 1.10,2013-08-22 10:06:00,
2013-08-22 05:21:00,73.9,70.0,30.79,South,172,0.0,-999.0,87,-99.99,,,0.00,weatherlink.com 1.10,2013-08-22 10:21:00,
2013-08-22 05:36:00,74.2,71.0,30.80,South,172,0.0,-999.0,88,-99.99,,,0.00,weatherlink.com 1.10,2013-08-22 10:36:00,
2013-08-22 07:36:00,74.2,71.0,30.83,South,172,0.0,-999.0,90,-99.99,,,0.00,weatherlink.com 1.10,2013-08-22 12:36:00,
2013-08-22 07:51:00,75.1,72.0,30.83,South,172,0.0,-999.0,90,-99.99,,,0.00,weatherlink.com 1.10,2013-08-22 12:51:00,
2013-08-22 08:06:00,76.3,73.0,30.83,South,172,0.0,-999.0,90,-99.99,,,0.00,weatherlink.com 1.10,2013-08-22 13:06:00,
2013-08-22 08:21:00,78.5,75.0,30.83,NE,40,3.0,-999.0,89,-99.99,,,0.00,weatherlink.com 1.10,2013-08-22 13:21:00,
2013-08-22 08:36:00,80.3,76.0,30.83,ENE,58,1.0,-999.0,86,-99.99,,,0.00,weatherlink.com 1.10,2013-08-22 13:36:00,
2013-08-22 08:51:00,81.6,76.0,30.83,ENE,70,3.0,-999.0,83,-99.99,,,0.00,weatherlink.com 1.10,2013-08-22 13:51:00,
2013-08-22 09:06:00,82.9,76.0,30.83,ENE,71,0.0,-999.0,80,-99.99,,,0.00,weatherlink.com 1.10,2013-08-22 14:06:00,
2013-08-22 09:21:00,83.4,76.0,30.82,ENE,73,1.0,-999.0,79,-99.99,,,0.00,weatherlink.com 1.10,2013-08-22 14:21:00,
2013-08-22 09:36:00,83.7,76.0,30.82,NNE,30,4.0,-999.0,77,-99.99,,,0.00,weatherlink.com 1.10,2013-08-22 14:36:00,
2013-08-22 09:51:00,84.1,76.0,30.82,ENE,63,3.0,-999.0,76,-99.99,,,0.00,weatherlink.com 1.10,2013-08-22 14:51:00,
2013-08-22 10:07:00,84.8,76.0,30.82,NNE,20,0.0,-999.0,75,-99.99,,,0.00,weatherlink.com 1.10,2013-08-22 15:07:00,
2013-08-22 10:22:00,86.3,77.0,30.82,East,91,0.0,-999.0,73,-99.99,,,0.00,weatherlink.com 1.10,2013-08-22 15:22:00,
2013-08-22 10:36:00,86.1,76.0,30.82,ENE,68,0.0,-999.0,72,-99.99,,,0.00,weatherlink.com 1.10,2013-08-22 15:36:00,
2013-08-22 10:51:00,86.0,76.0,30.82,ENE,68,0.0,-999.0,72,-99.99,,,0.00,weatherlink.com 1.10,2013-08-22 15:51:00,
2013-08-22 11:06:00,86.8,76.0,30.82,ENE,68,1.0,-999.0,70,-99.99,,,0.00,weatherlink.com 1.10,2013-08-22 16:06:00,
2013-08-22 11:21:00,88.6,74.0,30.82,ENE,63,1.0,-999.0,63,-99.99,,,0.00,weatherlink.com 1.10,2013-08-22 16:21:00,
2013-08-22 11:36:00,89.0,74.0,30.81,ENE,63,1.0,-999.0,62,-99.99,,,0.00,weatherlink.com 1.10,2013-08-22 16:36:00,
2013-08-22 11:51:00,89.9,74.0,30.81,NE,49,0.0,-999.0,60,-99.99,,,0.00,weatherlink.com 1.10,2013-08-22 16:51:00,
2013-08-22 12:06:00,90.4,74.0,30.80,ENE,61,4.0,-999.0,58,-99.99,,,0.00,weatherlink.com 1.10,2013-08-22 17:06:00,
2013-08-22 12:21:00,91.4,74.0,30.79,ENE,57,0.0,-999.0,57,-99.99,,,0.00,weatherlink.com 1.10,2013-08-22 17:21:00,
2013-08-22 12:37:00,91.1,73.0,30.79,NE,45,2.0,-999.0,55,-99.99,,,0.00,weatherlink.com 1.10,2013-08-22 17:37:00,
2013-08-22 12:52:00,91.3,73.0,30.78,NNE,17,0.0,-999.0,55,-99.99,,,0.00,weatherlink.com 1.10,2013-08-22 17:52:00,
2013-08-22 13:07:00,92.8,73.0,30.77,NNE,28,1.0,-999.0,53,-99.99,,,0.00,weatherlink.com 1.10,2013-08-22 18:07:00,
2013-08-22 13:22:00,93.5,72.0,30.77,East,86,3.0,-999.0,49,-99.99,,,0.00,weatherlink.com 1.10,2013-08-22 18:22:00,
2013-08-22 13:36:00,94.2,72.0,30.75,East,90,6.0,-999.0,49,-99.99,,,0.00,weatherlink.com 1.10,2013-08-22 18:36:00,
2013-08-22 13:52:00,94.5,71.0,30.75,ENE,61,4.0,-999.0,46,-99.99,,,0.00,weatherlink.com 1.10,2013-08-22 18:52:00,
2013-08-22 14:07:00,94.0,72.0,30.75,South,174,4.0,-999.0,49,-99.99,,,0.00,weatherlink.com 1.10,2013-08-22 19:07:00,
2013-08-22 14:22:00,95.2,71.0,30.74,ENE,65,3.0,-999.0,46,-99.99,,,0.00,weatherlink.com 1.10,2013-08-22 19:22:00,
2013-08-22 14:36:00,95.7,71.0,30.73,SSE,167,3.0,-999.0,45,-99.99,,,0.00,weatherlink.com 1.10,2013-08-22 19:36:00,
2013-08-22 14:51:00,96.3,70.0,30.72,ENE,58,1.0,-999.0,43,-99.99,,,0.00,weatherlink.com 1.10,2013-08-22 19:51:00,
2013-08-22 15:06:00,95.9,72.0,30.71,East,79,5.0,-999.0,46,-99.99,,,0.00,weatherlink.com 1.10,2013-08-22 20:06:00,
2013-08-22 15:21:00,96.4,71.0,30.71,NE,55,2.0,-999.0,44,-99.99,,,0.00,weatherlink.com 1.10,2013-08-22 20:21:00,
2013-08-22 15:37:00,96.6,70.0,30.70,ENE,74,3.0,-999.0,42,-99.99,,,0.00,weatherlink.com 1.10,2013-08-22 20:37:00,
2013-08-22 15:52:00,96.2,69.0,30.70,NE,42,4.0,-999.0,41,-99.99,,,0.00,weatherlink.com 1.10,2013-08-22 20:52:00,
2013-08-22 16:07:00,96.6,69.0,30.69,NE,40,6.0,-999.0,41,-99.99,,,0.00,weatherlink.com 1.10,2013-08-22 21:07:00,
2013-08-22 16:22:00,97.0,70.0,30.68,ENE,67,4.0,-999.0,41,-99.99,,,0.00,weatherlink.com 1.10,2013-08-22 21:22:00,
2013-08-22 16:37:00,97.0,70.0,30.68,ESE,119,4.0,-999.0,42,-99.99,,,0.00,weatherlink.com 1.10,2013-08-22 21:37:00,
2013-08-22 16:52:00,97.3,71.0,30.67,SE,138,0.0,-999.0,42,-99.99,,,0.00,weatherlink.com 1.10,2013-08-22 21:52:00,
2013-08-22 17:07:00,98.1,70.0,30.66,East,80,3.0,-999.0,40,-99.99,,,0.00,weatherlink.com 1.10,2013-08-22 22:07:00,
2013-08-22 17:22:00,96.4,69.0,30.66,NE,38,2.0,-999.0,41,-99.99,,,0.00,weatherlink.com 1.10,2013-08-22 22:22:00,
2013-08-22 17:37:00,96.6,71.0,30.66,ENE,76,3.0,-999.0,44,-99.99,,,0.00,weatherlink.com 1.10,2013-08-22 22:37:00,
2013-08-22 17:52:00,95.1,71.0,30.66,ENE,68,3.0,-999.0,45,-99.99,,,0.00,weatherlink.com 1.10,2013-08-22 22:52:00,
2013-08-22 18:07:00,94.3,70.0,30.66,East,80,1.0,-999.0,45,-99.99,,,0.00,weatherlink.com 1.10,2013-08-22 23:07:00,
2013-08-22 18:22:00,93.8,72.0,30.65,SSE,155,2.0,-999.0,49,-99.99,,,0.00,weatherlink.com 1.10,2013-08-22 23:22:00,
2013-08-22 18:37:00,92.9,72.0,30.66,SSE,158,1.0,-999.0,50,-99.99,,,0.00,weatherlink.com 1.10,2013-08-22 23:37:00,
2013-08-22 18:52:00,84.8,73.0,30.68,NW,306,4.0,-999.0,68,-99.99,,,0.03,weatherlink.com 1.10,2013-08-22 23:52:00,
2013-08-22 19:07:00,80.6,74.0,30.68,SW,219,0.0,-999.0,79,-99.99,,,0.08,weatherlink.com 1.10,2013-08-23 00:07:00,
2013-08-22 19:22:00,79.6,74.0,30.67,ENE,65,2.0,-999.0,82,-99.99,,,0.09,weatherlink.com 1.10,2013-08-23 00:22:00,
2013-08-22 19:37:00,78.8,73.0,30.68,ENE,65,0.0,-999.0,83,-99.99,,,0.09,weatherlink.com 1.10,2013-08-23 00:37:00,
2013-08-22 19:52:00,79.1,74.0,30.69,ENE,73,3.0,-999.0,84,-99.99,,,0.09,weatherlink.com 1.10,2013-08-23 00:52:00,
2013-08-22 20:07:00,79.3,72.0,30.69,SE,128,2.0,-999.0,79,-99.99,,,0.09,weatherlink.com 1.10,2013-08-23 01:07:00,
2013-08-22 20:22:00,79.9,72.0,30.69,SSE,163,0.0,-999.0,77,-99.99,,,0.09,weatherlink.com 1.10,2013-08-23 01:22:00,
2013-08-22 20:37:00,79.7,73.0,30.70,SSE,163,0.0,-999.0,79,-99.99,,,0.09,weatherlink.com 1.10,2013-08-23 01:37:00,
2013-08-22 20:52:00,80.0,74.0,30.72,SSE,165,1.0,-999.0,81,-99.99,,,0.09,weatherlink.com 1.10,2013-08-23 01:52:00,
2013-08-22 21:07:00,80.3,74.0,30.72,SSE,165,0.0,-999.0,82,-99.99,,,0.09,weatherlink.com 1.10,2013-08-23 02:07:00,
2013-08-22 21:22:00,79.9,74.0,30.73,SSE,165,0.0,-999.0,83,-99.99,,,0.09,weatherlink.com 1.10,2013-08-23 02:22:00,
2013-08-22 21:37:00,79.9,74.0,30.73,SSE,165,0.0,-999.0,83,-99.99,,,0.09,weatherlink.com 1.10,2013-08-23 02:37:00,
2013-08-22 21:52:00,80.1,75.0,30.74,SSE,165,0.0,-999.0,83,-99.99,,,0.09,weatherlink.com 1.10,2013-08-23 02:52:00,
2013-08-22 22:07:00,80.2,75.0,30.75,SSE,165,0.0,-999.0,83,-99.99,,,0.09,weatherlink.com 1.10,2013-08-23 03:07:00,
2013-08-22 22:22:00,80.2,75.0,30.74,SSE,165,0.0,-999.0,84,-99.99,,,0.09,weatherlink.com 1.10,2013-08-23 03:22:00,
2013-08-22 22:37:00,79.9,75.0,30.74,SSE,165,0.0,-999.0,84,-99.99,,,0.09,weatherlink.com 1.10,2013-08-23 03:37:00,
2013-08-22 22:52:00,79.8,75.0,30.75,SSE,165,0.0,-999.0,84,-99.99,,,0.09,weatherlink.com 1.10,2013-08-23 03:52:00,
2013-08-22 23:07:00,80.1,75.0,30.75,SSE,165,0.0,-999.0,84,-99.99,,,0.09,weatherlink.com 1.10,2013-08-23 04:07:00,
2013-08-22 23:22:00,80.2,75.0,30.75,SSE,165,0.0,-999.0,83,-99.99,,,0.09,weatherlink.com 1.10,2013-08-23 04:22:00,
2013-08-22 23:37:00,80.1,75.0,30.75,SSE,165,0.0,-999.0,83,-99.99,,,0.09,weatherlink.com 1.10,2013-08-23 04:37:00,
2013-08-22 23:52:00,80.0,74.0,30.75,SSE,165,0.0,-999.0,83,-99.99,,,0.00,weatherlink.com 1.10,2013-08-23 04:52:00,